Latest Weather Observations for Spitfire Channel

IDQ60901

Issued at 8:01 am EST Friday 26 August 2016 (issued every 10 minutes, with the page automatically refreshed every 10 minutes)

About weather observations | Map of Brisbane area stations | Latest observations for Brisbane area | Other Formats
Station Details ID: 040927 Name: SPITFIRE CHANNEL BEACON Lat: -27.05 Lon: 153.27 Height: 7.0 m
Data from the previous 72 hours. | See also: Recent months for locations in Queensland
Date/Time
EST
Temp
°C
App
Temp
°C
Dew
Point
°C
Rel
Hum
%
Delta-T
°C
Wind Press
QNH
hPa
Press
MSL
hPa
Rain since
9am
mm
Dir  Spd
km/h
Gust
km/h
Spd
kts
Gust
kts
26/08:00am - - - - - SW 17 20 9 11 - - -
26/07:30am - - - - - SW 17 24 9 13 - - -
26/07:00am - - - - - WSW 19 24 10 13 - - -
26/06:30am - - - - - SW 19 22 10 12 - - -
26/06:00am - - - - - SW 19 24 10 13 - - -
26/05:30am - - - - - SW 20 24 11 13 - - -
26/05:00am - - - - - SW 19 24 10 13 - - -
26/04:30am - - - - - SW 19 20 10 11 - - -
26/04:00am - - - - - SW 17 20 9 11 - - -
26/03:30am - - - - - WSW 15 19 8 10 - - -
26/03:00am - - - - - SW 17 20 9 11 - - -
26/02:30am - - - - - SW 24 30 13 16 - - -
26/02:00am - - - - - SW 22 28 12 15 - - -
26/01:30am - - - - - SW 17 20 9 11 - - -
26/01:00am - - - - - SW 22 28 12 15 - - -
26/12:30am - - - - - SW 26 30 14 16 - - -
26/12:00am - - - - - SW 24 28 13 15 - - -
 
Date/Time
EST
Temp
°C
App
Temp
°C
Dew
Point
°C
Rel
Hum
%
Delta-T
°C
Wind Press
QNH
hPa
Press
MSL
hPa
Rain since
9am
mm
Dir  Spd
km/h
Gust
km/h
Spd
kts
Gust
kts
25/11:30pm - - - - - SW 20 26 11 14 - - -
25/11:00pm - - - - - SW 24 30 13 16 - - -
25/10:30pm - - - - - SW 28 33 15 18 - - -
25/10:00pm - - - - - SW 26 32 14 17 - - -
25/09:30pm - - - - - SW 28 33 15 18 - - -
25/09:00pm - - - - - SW 28 33 15 18 - - -
25/08:30pm - - - - - SW 26 37 14 20 - - -
25/08:00pm - - - - - SW 32 37 17 20 - - -
25/07:30pm - - - - - SW 32 39 17 21 - - -
25/07:00pm - - - - - SW 33 41 18 22 - - -
25/06:30pm - - - - - SW 33 41 18 22 - - -
25/06:00pm - - - - - SW 30 37 16 20 - - -
25/05:30pm - - - - - SW 30 37 16 20 - - -
25/05:00pm - - - - - SW 32 37 17 20 - - -
25/04:30pm - - - - - SSW 30 35 16 19 - - -
25/04:00pm - - - - - SSW 24 30 13 16 - - -
25/03:30pm - - - - - SW 19 28 10 15 - - -
25/03:00pm - - - - - SSW 20 28 11 15 - - -
25/02:30pm - - - - - SW 15 20 8 11 - - -
25/02:00pm - - - - - WSW 19 26 10 14 - - -
25/01:30pm - - - - - SSW 26 33 14 18 - - -
25/01:00pm - - - - - SW 22 32 12 17 - - -
25/12:30pm - - - - - SW 20 32 11 17 - - -
25/12:00pm - - - - - WSW 26 35 14 19 - - -
25/11:30am - - - - - SW 30 37 16 20 - - -
25/11:00am - - - - - WSW 30 44 16 24 - - -
25/10:30am - - - - - SW 30 37 16 20 - - -
25/10:00am - - - - - WSW 32 41 17 22 - - -
25/09:30am - - - - - SW 37 46 20 25 - - -
25/09:00am - - - - - WSW 30 39 16 21 - - -
25/08:30am - - - - - WSW 30 35 16 19 - - -
25/08:00am - - - - - WSW 30 41 16 22 - - -
25/07:30am - - - - - WSW 24 32 13 17 - - -
25/07:00am - - - - - SW 26 32 14 17 - - -
25/06:30am - - - - - SW 22 30 12 16 - - -
25/06:00am - - - - - SW 28 35 15 19 - - -
25/05:30am - - - - - SW 22 32 12 17 - - -
25/05:00am - - - - - WSW 20 28 11 15 - - -
25/04:30am - - - - - SW 30 35 16 19 - - -
25/04:00am - - - - - SW 28 33 15 18 - - -
25/03:30am - - - - - SW 20 28 11 15 - - -
25/03:00am - - - - - W 28 33 15 18 - - -
25/02:30am - - - - - W 30 35 16 19 - - -
25/02:00am - - - - - WNW 20 24 11 13 - - -
25/01:30am - - - - - WNW 26 32 14 17 - - -
25/01:00am - - - - - W 28 35 15 19 - - -
25/12:30am - - - - - WNW 24 28 13 15 - - -
25/12:00am - - - - - WNW 22 24 12 13 - - -
 
Date/Time
EST
Temp
°C
App
Temp
°C
Dew
Point
°C
Rel
Hum
%
Delta-T
°C
Wind Press
QNH
hPa
Press
MSL
hPa
Rain since
9am
mm
Dir  Spd
km/h
Gust
km/h
Spd
kts
Gust
kts
24/11:30pm - - - - - NW 33 39 18 21 - - -
24/11:00pm - - - - - NNW 24 28 13 15 - - -
24/10:30pm - - - - - NW 19 22 10 12 - - -
24/10:00pm - - - - - WNW 19 22 10 12 - - -
24/09:30pm - - - - - NW 19 24 10 13 - - -
24/09:00pm - - - - - NNW 19 22 10 12 - - -
24/08:30pm - - - - - N 20 22 11 12 - - -
24/08:00pm - - - - - N 20 24 11 13 - - -
24/07:30pm - - - - - NNE 17 20 9 11 - - -
24/07:00pm - - - - - NE 11 13 6 7 - - -
24/06:30pm - - - - - ENE 6 7 3 4 - - -
24/06:00pm - - - - - SSE 11 13 6 7 - - -
24/05:30pm - - - - - S 17 20 9 11 - - -
24/05:00pm - - - - - SSE 19 22 10 12 - - -
24/04:30pm - - - - - S 24 28 13 15 - - -
24/04:00pm - - - - - S 26 30 14 16 - - -
24/03:30pm - - - - - SSE 28 33 15 18 - - -
24/03:00pm - - - - - SSE 32 37 17 20 - - -
24/02:30pm - - - - - S 28 37 15 20 - - -
24/02:00pm - - - - - W 33 43 18 23 - - -
24/01:43pm - - - - - WSW 35 54 19 29 - - -
24/01:30pm - - - - - WSW 20 44 11 24 - - -
24/01:00pm - - - - - NNW 22 24 12 13 - - -
24/12:30pm - - - - - NNW 19 24 10 13 - - -
24/12:00pm - - - - - NNW 26 30 14 16 - - -
24/11:30am - - - - - N 28 33 15 18 - - -
24/11:00am - - - - - N 26 30 14 16 - - -
24/10:30am - - - - - NNW 28 32 15 17 - - -
24/10:00am - - - - - N 26 30 14 16 - - -
24/09:30am - - - - - NNW 28 32 15 17 - - -
24/09:00am - - - - - NNW 22 26 12 14 - - -
24/08:30am - - - - - NNW 24 30 13 16 - - -
24/08:00am - - - - - NNW 24 28 13 15 - - -
24/07:30am - - - - - NNW 17 20 9 11 - - -
24/07:00am - - - - - N 24 28 13 15 - - -
24/06:30am - - - - - N 30 35 16 19 - - -
24/06:00am - - - - - N 37 44 20 24 - - -
24/05:30am - - - - - N 22 26 12 14 - - -
24/05:00am - - - - - NNW 17 22 9 12 - - -
24/04:30am - - - - - NNW 19 24 10 13 - - -
24/04:00am - - - - - NNW 20 24 11 13 - - -
24/03:30am - - - - - N 15 22 8 12 - - -
24/03:00am - - - - - N 19 22 10 12 - - -
24/02:30am - - - - - NNE 19 22 10 12 - - -
24/02:00am - - - - - N 26 30 14 16 - - -
24/01:30am - - - - - N 28 33 15 18 - - -
24/01:00am - - - - - N 28 32 15 17 - - -
24/12:30am - - - - - N 35 43 19 23 - - -
24/12:00am - - - - - N 32 37 17 20 - - -
 
Date/Time
EST
Temp
°C
App
Temp
°C
Dew
Point
°C
Rel
Hum
%
Delta-T
°C
Wind Press
QNH
hPa
Press
MSL
hPa
Rain since
9am
mm
Dir  Spd
km/h
Gust
km/h
Spd
kts
Gust
kts
23/11:30pm - - - - - N 33 43 18 23 - - -
23/11:00pm - - - - - N 39 48 21 26 - - -
23/10:30pm - - - - - N 32 48 17 26 - - -
23/10:28pm - - - - - N 30 48 16 26 - - -
23/10:00pm - - - - - N 33 39 18 21 - - -
23/09:30pm - - - - - N 32 35 17 19 - - -
23/09:00pm - - - - - N 28 32 15 17 - - -
23/08:30pm - - - - - N 26 30 14 16 - - -
23/08:00pm - - - - - N 26 30 14 16 - - -
23/07:30pm - - - - - N 24 28 13 15 - - -
23/07:00pm - - - - - N 24 28 13 15 - - -
23/06:30pm - - - - - N 24 26 13 14 - - -
23/06:00pm - - - - - NNE 20 26 11 14 - - -
23/05:30pm - - - - - NNE 22 26 12 14 - - -
23/05:00pm - - - - - NNE 24 28 13 15 - - -
23/04:30pm - - - - - N 26 28 14 15 - - -
23/04:00pm - - - - - N 24 30 13 16 - - -
23/03:30pm - - - - - N 24 28 13 15 - - -
23/03:00pm - - - - - N 26 28 14 15 - - -
23/02:30pm - - - - - NNE 22 28 12 15 - - -
23/02:00pm - - - - - NNE 20 24 11 13 - - -
23/01:30pm - - - - - N 19 22 10 12 - - -
23/01:00pm - - - - - N 24 28 13 15 - - -
23/12:30pm - - - - - N 24 26 13 14 - - -
23/12:00pm - - - - - N 20 24 11 13 - - -
23/11:30am - - - - - N 20 22 11 12 - - -
23/11:00am - - - - - N 17 20 9 11 - - -
23/10:30am - - - - - N 17 20 9 11 - - -
23/10:00am - - - - - NNW 17 20 9 11 - - -
23/09:30am - - - - - NW 17 20 9 11 - - -
23/09:00am - - - - - NNW 22 24 12 13 - - -
23/08:30am - - - - - N 24 28 13 15 - - -

Latest Capital City Observations: Canberra | Sydney | Melbourne | Brisbane | Adelaide | Perth | Hobart | Darwin

Other Formats:

Comma delimited format used in spreadsheet applications
http://www.bom.gov.au/fwo/IDQ60901/IDQ60901.94581.axf

JavaScript Object Notation format (JSON) in row-major order
http://www.bom.gov.au/fwo/IDQ60901/IDQ60901.94581.json